Trans Sea — 9HA2564 — position and weather

sailwx.info

Track history (hours):
 
Tides and Currents Weather Stations Pressure Air Temp Water Temp Dewpoint Dewpoint Depression Visibility Wind Speed Wind Dir Waves Ship Positions

Trans Sea

Last reported at 2014-Sep-30 21:29 UTC. Time now 2014-Oct-01 06:10 UTC.
Position N 38°43' E 008°36'.

Length 107 m; draft 5.4 m.

Type: Ship (hazmat cat A). MMSI: 248887000.

Date/timePositionNaut miles runAvg speedWind from/ knotsBaromVisibWave heightAir tempDewpointWater temp
2014-Sep-30 21:29N 38°43' E 008°36'26213.8
2014-Sep-30 02:33N 36°60' E 013°40'1313.3
2014-Sep-30 01:32N 36°53' E 013°55'1313.1
2014-Sep-30 00:33N 36°47' E 014°09'1313.3
2014-Sep-29 23:33N 36°40' E 014°24'46912.0
2014-Sep-28 08:28N 37°37' E 024°08'29012.6
2014-Sep-27 09:28N 40°54' E 028°42'9 8.4
2014-Sep-27 08:25N 40°57' E 028°53'0 0.0
2014-Sep-27 07:17N 40°57' E 028°53'0 0.0
2014-Sep-27 06:19N 40°57' E 028°53'0 0.0
2014-Sep-27 05:31N 40°57' E 028°53'2 1.8
2014-Sep-27 04:32N 40°57' E 028°56'1212.0
2014-Sep-27 03:33N 40°48' E 029°06'1212.2
2014-Sep-27 02:33N 40°45' E 029°22'7 6.9
2014-Sep-27 01:32N 40°45' E 029°31'1 0.0
2014-Sep-25 04:29N 40°46' E 029°33'8 8.5
2014-Sep-25 03:30N 40°43' E 029°22'9 9.5
2014-Sep-25 02:33N 40°43' E 029°10'1312.5
2014-Sep-25 01:33N 40°43' E 028°54'29611.4
2014-Sep-23 23:33N 37°37' E 023°56'1212.3
2014-Sep-23 22:34N 37°41' E 023°42'1313.4
2014-Sep-23 21:33N 37°54' E 023°36'4 3.8
2014-Sep-23 20:31N 37°57' E 023°35'0 0.0
2014-Sep-23 19:33N 37°57' E 023°35'0 0.0
2014-Sep-23 18:33N 37°57' E 023°35'0 0.0
2014-Sep-23 17:33N 37°57' E 023°35'0 0.0
2014-Sep-23 16:33N 37°57' E 023°35'0 0.0
2014-Sep-23 15:33N 37°57' E 023°35'0 0.0
2014-Sep-23 14:33N 37°57' E 023°35'0 0.0
2014-Sep-23 13:33N 37°57' E 023°35'0 0.0
2014-Sep-23 12:33N 37°57' E 023°35'0 0.0
2014-Sep-23 11:33N 37°57' E 023°35'0 0.0
2014-Sep-23 10:33N 37°57' E 023°35'0 0.0
2014-Sep-23 09:33N 37°57' E 023°35'0 0.0
2014-Sep-23 08:33N 37°57' E 023°35'0 0.0
2014-Sep-23 07:33N 37°57' E 023°35'0 0.0
2014-Sep-23 06:33N 37°57' E 023°35'2 2.3
2014-Sep-23 05:33N 37°55' E 023°36'9 9.1
2014-Sep-23 04:33N 37°47' E 023°41'1312.5
2014-Sep-23 03:33N 37°35' E 023°44'1313.0
2014-Sep-23 02:33N 37°22' E 023°41'2613.1
2014-Sep-23 00:31N 36°56' E 023°33'1212.5
2014-Sep-22 23:33N 36°45' E 023°28'38811.7
2014-Sep-21 14:23N 36°32' E 015°24'1113.3
2014-Sep-21 13:33N 36°33' E 015°10'1313.1
2014-Sep-21 12:33N 36°35' E 014°54'1313.4
2014-Sep-21 11:33N 36°38' E 014°38'1313.4
2014-Sep-21 10:33N 36°41' E 014°22'1413.6
2014-Sep-21 09:33N 36°48' E 014°07'1413.7
2014-Sep-21 08:33N 36°55' E 013°52'1313.5
2014-Sep-21 07:33N 37°01' E 013°37'1412.9
2014-Sep-21 06:30N 37°07' E 013°21'1312.8
2014-Sep-21 05:30N 37°13' E 013°08'1212.6
2014-Sep-21 04:33N 37°19' E 012°55'2712.0
2014-Sep-21 02:17N 37°30' E 012°23'1012.7
2014-Sep-21 01:32N 37°31' E 012°11'  
Track history (hours):
 
Tides and Currents Weather Stations Pressure Air Temp Water Temp Dewpoint Dewpoint Depression Visibility Wind Speed Wind Dir Waves Ship Positions

Trans Sea

Last reported at 2014-Sep-30 21:29 UTC. Time now 2014-Oct-01 06:10 UTC.
Position N 38°43' E 008°36'.

Length 107 m; draft 5.4 m.

Type: Ship (hazmat cat A). MMSI: 248887000.

Date/timePositionNaut miles runAvg speedWind from/ knotsBaromVisibWave heightAir tempDewpointWater temp
2014-Sep-30 21:29N 38°43' E 008°36'26213.8
2014-Sep-30 02:33N 36°60' E 013°40'1313.3
2014-Sep-30 01:32N 36°53' E 013°55'1313.1
2014-Sep-30 00:33N 36°47' E 014°09'1313.3
2014-Sep-29 23:33N 36°40' E 014°24'46912.0
2014-Sep-28 08:28N 37°37' E 024°08'29012.6
2014-Sep-27 09:28N 40°54' E 028°42'9 8.4
2014-Sep-27 08:25N 40°57' E 028°53'0 0.0
2014-Sep-27 07:17N 40°57' E 028°53'0 0.0
2014-Sep-27 06:19N 40°57' E 028°53'0 0.0
2014-Sep-27 05:31N 40°57' E 028°53'2 1.8
2014-Sep-27 04:32N 40°57' E 028°56'1212.0
2014-Sep-27 03:33N 40°48' E 029°06'1212.2
2014-Sep-27 02:33N 40°45' E 029°22'7 6.9
2014-Sep-27 01:32N 40°45' E 029°31'1 0.0
2014-Sep-25 04:29N 40°46' E 029°33'8 8.5
2014-Sep-25 03:30N 40°43' E 029°22'9 9.5
2014-Sep-25 02:33N 40°43' E 029°10'1312.5
2014-Sep-25 01:33N 40°43' E 028°54'29611.4
2014-Sep-23 23:33N 37°37' E 023°56'1212.3
2014-Sep-23 22:34N 37°41' E 023°42'1313.4
2014-Sep-23 21:33N 37°54' E 023°36'4 3.8
2014-Sep-23 20:31N 37°57' E 023°35'0 0.0
2014-Sep-23 19:33N 37°57' E 023°35'0 0.0
2014-Sep-23 18:33N 37°57' E 023°35'0 0.0
2014-Sep-23 17:33N 37°57' E 023°35'0 0.0
2014-Sep-23 16:33N 37°57' E 023°35'0 0.0
2014-Sep-23 15:33N 37°57' E 023°35'0 0.0
2014-Sep-23 14:33N 37°57' E 023°35'0 0.0
2014-Sep-23 13:33N 37°57' E 023°35'0 0.0
2014-Sep-23 12:33N 37°57' E 023°35'0 0.0
2014-Sep-23 11:33N 37°57' E 023°35'0 0.0
2014-Sep-23 10:33N 37°57' E 023°35'0 0.0
2014-Sep-23 09:33N 37°57' E 023°35'0 0.0
2014-Sep-23 08:33N 37°57' E 023°35'0 0.0
2014-Sep-23 07:33N 37°57' E 023°35'0 0.0
2014-Sep-23 06:33N 37°57' E 023°35'2 2.3
2014-Sep-23 05:33N 37°55' E 023°36'9 9.1
2014-Sep-23 04:33N 37°47' E 023°41'1312.5
2014-Sep-23 03:33N 37°35' E 023°44'1313.0
2014-Sep-23 02:33N 37°22' E 023°41'2613.1
2014-Sep-23 00:31N 36°56' E 023°33'1212.5
2014-Sep-22 23:33N 36°45' E 023°28'38811.7
2014-Sep-21 14:23N 36°32' E 015°24'1113.3
2014-Sep-21 13:33N 36°33' E 015°10'1313.1
2014-Sep-21 12:33N 36°35' E 014°54'1313.4
2014-Sep-21 11:33N 36°38' E 014°38'1313.4
2014-Sep-21 10:33N 36°41' E 014°22'1413.6
2014-Sep-21 09:33N 36°48' E 014°07'1413.7
2014-Sep-21 08:33N 36°55' E 013°52'1313.5
2014-Sep-21 07:33N 37°01' E 013°37'1412.9
2014-Sep-21 06:30N 37°07' E 013°21'1312.8
2014-Sep-21 05:30N 37°13' E 013°08'1212.6
2014-Sep-21 04:33N 37°19' E 012°55'2712.0
2014-Sep-21 02:17N 37°30' E 012°23'1012.7
2014-Sep-21 01:32N 37°31' E 012°11'  

Dump ship's entire track history